quarta-feira, 7 de setembro de 2011

VÍTIMAS DE ACIDENTE DE AVIÃO NO CHILE SÃO ENCONTRADAS NO MAR GRAÇAS AO SINAL DE UM IPHONE






Um avião militar com 21 pessoas se perdeu no meio do mar chileno durante o último final de semana. Ele desapareceu do radar e as autoridades não tinham ideia de onde ele tinha caído. Surpreendentemente, eles conseguiram encontrar os corpos graças ao Find My iPhone, da Apple. Os corpos do avião CASA 212 da Força Aérea Chilena foram encontrados boiando próximos à Tierra Banca e à Playa Larga, em uma zona entre as ilhas de Robinson Crusoé e Santa Clara, e próximo ao aeroporto Juan Fernández.

O local do acidente foi localizado graças a um dos parentes de uma das vítimas. A vítima tinha um iPhone ligado no momento da queda. Provavelmente em um ato desesperado, os parentes ativaram a habilidade Find My iPhone que a Apple oferece para aparelhos com iOS. O smartphone  apareceu no mapa no computador, de acordo com um dos oficiais militares encarregados da operação de busca:
Um dopassageiros carregava [um iPhone]. Quando ele caiu no mar, ele foi localizado por um dos parentes, que nos enviaram as informaçõess .
É surpreendente pensar que o iPhone sobreviveu ao impacto e continuou funcionando, principalmente porque o acidente foi bem destrutivo, segundo os militares:
Nenhuma das peças recuperadas até então tem mais de 50 centímetros, o que confirma que o avião sofreu uma fragmentação alta [no impacto]
As equipes de busca — as da foto acima — estão tentando agora recuperar os corpos do fundo do mar usando dois robôs Proteus 1000, mas as condições climáticas são extremamente ruins. Mergulhadores militares retomarão as buscas assim que o tempo melhorar, mas quatro corpos já foram encontrados. [Infobae -- obrigado, Fran Velazquez!]

fonte/foto/GizModo
Enhanced by Zemanta

IDENTIFICADAS MAIS 3 VÍTIMAS DO ACIDENTE DE AVIÃO NO CHILE

O governo chileno divulgou três novas identidades entre as 21 pessoas que morreram em um acidente de avião na sexta-feira, a caminho da ilha Robinson Crusoé, no Pacífico: Catalina Vela Montt, Sebastián Correa Murillo e Juan Pablo Mallea, tenente da Força Aérea. As informações são de Andrés Chadwick, porta-voz do governo. Até o momento sete vítimas foram identificadas.

"Encontramos restos mortais em uma região de até 7 km", disse o ministro da Defesa chileno, Andrés Allamand, da ilha de Robinson Crusoé, onde ocorreu o acidente. No sábado, as equipes de busca, a cargo da Força Aérea e das Forças Armadas chilenas, encontraram quatro corpos - identificados em Santiago -, enquanto no domingo foram encontrados os restos mortais das três pessoas citadas.

O almirante das Forças Armadas, Francisco García Huidobro, explicou que um dos familiares das vítimas revelou às autoridades ter recebido por poucos minutos o sinal GPS de um telefone celular após o acidente, e que sua localização foi detectada antes de o sinal desaparecer. "Acreditamos que ao cair no mar (o celular) funcionou por alguns instantes e logo desapareceu definitivamente", afirmou García Huidobro.

"A localização do celular foi encontrada (no mar) pelas equipes de resgate. Vão enviar um grupo de forças especiais ao local para tentar procurar esse aparelho", completou o chefe das Forças Armadas chilenas. García Huidobro não divulgou a identidade do dono do celular nem do familiar que entregou a informação.

Os restos mortais encontrados durante as tarefas de resgate, realizadas há quatro dias, sustentam a hipótese do governo de que "a aeronave caiu no mar e se desintegrou", afirmou o ministro Allamand. Entre os ocupantes do avião estava o apresentador de TV Felipe Camiroaga, famoso na televisão local, que viajava com quatro membros da estatal TVN para fazer uma reportagem sobre a ilha. O corpo do apresentador ainda não foi encontrado.

fonte/Afp/Terra
Enhanced by Zemanta

AVIÃO AGRÍCOLA FAZ POSUO FORÇADO EM CONCEIÇÃO DO COITÉ, BAHIA

Após apresentar problemas mecânicos, um avião monomotor fez um pouso forçado na manhã desta quarta-feira (7) em um campo de futebol do povoado de Aroeira em Conceição do Coité (a 210 km de Salvador). Somente o piloto estava no avião, pertencente à uma empresa de produtos agrícolas do estado de Góias. O piloto nada sofreu. 

Segundo informações do titular da delegacia local, Gustavo Ameno, Diego dos Santos informou que saiu de Pinhão em Sergipe com destino a Catalão em Goiás. No percurso o monomotor começou a perde potência, obrigando-o a pousar. “Ele nos informou que as revisões do avião estão atualizadas e que tem habilitação para pilotar a aeronave, confirmando com documentos”, informou.

Ainda seguindo o delegado antes de pousar, o piloto teria esvaziado o tanque de combustível para evitar explosões acidentais. No momento do pouso a aeronave bateu em uma cerca provocando um amasso na fuselagem. “O avião iria abastecer em Itaberaba. O piloto não soube informar o motivo da perda de força da aeronave”, explicou.

O pouso forçado chamou a atenção de vários curiosos que foram ao local ver a aeronave de perto. O equipamento continua na cidade à espera da empresa que se comprometeu em providenciar a busca do mesmo.

fonte/foto/ATardeOnline
Enhanced by Zemanta
Uma aeronave da Aerocon,  Swearingen Metroliner SA-227, matrícula CP-2548 realizando vôo A4-238 de Santa Cruz para Trinidad (Bolívia), com 7 passageiros e 2 tripulantes está desaparecido após contato com a torre de Trinidad durante aproximação. 
 
  A tripulação informou que estavam 10 nm do aerporto quado o contato do rádio foi perdido, e não chegou ao aeródromo ou qualquer outro aeródromo da região.
 
No momento da aproximação a visibilidade era baixa na região.

 A Força Aérea da Bolívia já lançou uma operação de busca e salvamento.

 A dirção da Aviação Civil Geral da Bolívia confirmou que o último contato de rádio foi quando a tripulação informaram que estavam na curva do procedimento às 20:00 local.

A companhia aérea relatou a que o estimado de chegada da aeronave era 19:10 local.
 
Trinidad tem uma pista 14/32 de 2400 metros  de comprimento, aproximação VOR / DME (MDH 371 pés AGL / MDA 870 pés MSL, a visibilidade de 1200 metros necessários para aeronaves Categoria B) e uma abordagem NDB (MDH 551 pés / MDA  1.600 metros) disponíveis para pista 14.

Metars:
070200Z 00000KT 0800 SLTR FU NSC 25/20 Q1011
070100Z 00000KT 1500 SLTR FU NSC 26/20 Q1011
070000Z 00000KT 1500 SLTR FU NSC 27/20 Q1010
062300Z 00000KT 1500 SLTR FU NSC 28/19 Q1009
062200Z 00000KT 1200 SLTR NSC 30/18 Q1009
062100Z 21008KT 1200 SLTR FU NSC 32/18 Q1009
062000Z 19010KT 1200 SLTR FU NSC 33/18 Q1009
061910Z 19010KT 1200 SLTR FU NSC 34/18 Q1010
061900Z 22008KT 1500 SLTR FU NSC 34/18 Q1010
 
fonte/AvHeral
Enhanced by Zemanta

AVIÃO CAI NA RÚSSIA COM A EQUIPE DE HÓQUEI LOKOMOTIV






Um Yak-42 Yak-42, matrícula RA-42434 realizando um vôo charter de Yaroslavl (Rússia) para Minsk (Belarus), com 37 passageiros, com Lokomotiv Yaroslav Hockey Team e 8 tripulantes, caiu depois de decolar do Aeroporto Tunoshna Yaroslavi.

O avião bateu em uma antena após a decolagem e depois impactou no chão a cerca de 1000 metros do aeroporto, dividindo-se em duas partes principais, a seção da cauda no leito do rio Volga e a outra parte da fuselagem no rio.

Vinte e seis corpos foram resgatados e dois ocupantes foram levados para hospitais vivos.

De acordo com ATDB a Yak Air Service operera dois Yak-42.
Equipe de hóquei Yaroslavl estava viajando para uma partidade abertura da temporada contra o Dynamo Minsk.
De acordo com o hospital, entre os dois sobrevivente estão o engenheiro de vôo e o jogador russo  Galimov jogador.
Não Metars estão disponíveis, a estação meteorológica local relatou visibilidade acima de 50km (27nm), parcialmente nublado, ventos de norte a 14kph (7,5 nós), a temperatura de 17 graus C, ponto de orvalho 7 graus C, umidade de 40%, caindo rapidamente QNH (1014 hPa às 10:00 L, 1011 hPa às 13:00 L e 1008 hPa às 16:00 L).


fonte/foto/AvHerald/AP
Enhanced by Zemanta

MÍSTERIO REVELADO - ANTOINE SAINT-EXUPÉRY...

Foi um segredo guardado durante 64 anos. Horst Rippert, piloto alemão da Luftwaffe, admitiu, aos 88 anos, ter abatido Antoine de St Exu...